createdAt,value
2024-02-23T00:00:33.825Z,3.95
2024-02-23T00:03:00.258Z,3.98
2024-02-23T00:05:26.753Z,4.01
2024-02-23T00:07:53.492Z,4.05
2024-02-23T00:10:20.005Z,4.10
2024-02-23T00:12:48.621Z,4.17
2024-02-23T00:15:14.986Z,4.24
2024-02-23T00:17:41.712Z,4.29
2024-02-23T00:20:12.135Z,4.33
2024-02-23T00:22:39.318Z,4.35
2024-02-23T00:25:06.867Z,4.40
2024-02-23T00:27:33.345Z,4.43
2024-02-23T00:30:00.082Z,4.43
2024-02-23T00:32:26.726Z,4.44
2024-02-23T00:34:53.232Z,4.48
2024-02-23T00:37:19.689Z,4.49
2024-02-23T00:39:46.301Z,4.51
2024-02-23T00:42:12.740Z,4.52
2024-02-23T00:44:39.366Z,4.55
2024-02-23T00:47:06.169Z,4.57
2024-02-23T00:49:32.686Z,4.59
2024-02-23T00:51:59.106Z,4.62
2024-02-23T00:54:25.577Z,4.64
2024-02-23T00:56:53.610Z,4.67
2024-02-23T00:59:22.294Z,4.70
2024-02-23T01:01:49.097Z,4.72
2024-02-23T01:04:15.755Z,4.75
2024-02-23T01:06:42.376Z,4.74
2024-02-23T01:09:09.043Z,4.74
2024-02-23T01:11:36.760Z,4.72
2024-02-23T01:14:03.364Z,4.72
2024-02-23T01:16:30.082Z,4.64
2024-02-23T01:18:56.783Z,4.49
2024-02-23T01:21:23.208Z,4.44
2024-02-23T01:23:49.714Z,4.39
2024-02-23T01:26:16.375Z,4.33
2024-02-23T01:28:42.849Z,4.31
2024-02-23T01:31:11.905Z,4.23
2024-02-23T01:33:40.008Z,4.31
2024-02-23T01:36:07.257Z,4.33
2024-02-23T01:38:34.015Z,4.31
2024-02-23T01:41:01.314Z,4.26
2024-02-23T01:43:28.027Z,4.21
2024-02-23T01:45:55.172Z,4.21
2024-02-23T01:48:22.613Z,4.22
2024-02-23T01:50:49.246Z,4.21
2024-02-23T01:53:16.669Z,4.22
2024-02-23T01:55:43.794Z,4.25
2024-02-23T01:58:10.406Z,4.29
2024-02-23T02:00:37.831Z,4.32
2024-02-23T02:03:08.874Z,4.34
2024-02-23T02:05:38.674Z,4.38
2024-02-23T02:08:05.929Z,4.39
2024-02-23T02:10:32.893Z,4.41
2024-02-23T02:13:06.654Z,4.41
2024-02-23T02:15:33.261Z,4.42
2024-02-23T02:17:59.872Z,4.42
2024-02-23T02:20:29.875Z,4.40
2024-02-23T02:22:56.593Z,4.39
2024-02-23T02:25:23.459Z,4.38
2024-02-23T02:27:50.080Z,4.37
2024-02-23T02:30:16.650Z,4.35
2024-02-23T02:32:43.552Z,4.32
2024-02-23T02:35:13.552Z,4.31
2024-02-23T02:37:40.703Z,4.28
2024-02-23T02:40:07.804Z,4.27
2024-02-23T02:42:35.109Z,4.26
2024-02-23T02:45:02.019Z,4.27
2024-02-23T02:47:29.027Z,4.24
2024-02-23T02:49:55.632Z,4.23
2024-02-23T02:52:24.188Z,4.23
2024-02-23T02:54:51.104Z,4.24
2024-02-23T02:57:17.662Z,4.23
2024-02-23T02:59:45.782Z,4.23
2024-02-23T03:02:12.382Z,4.24
2024-02-23T03:04:38.811Z,4.23
2024-02-23T03:07:05.973Z,4.22
2024-02-23T03:09:32.598Z,4.22
2024-02-23T03:11:59.241Z,4.20
2024-02-23T03:14:27.112Z,4.17
2024-02-23T03:16:53.822Z,4.16
2024-02-23T03:19:23.602Z,4.16
2024-02-23T03:21:52.979Z,4.16
2024-02-23T03:24:19.446Z,4.15
2024-02-23T03:26:46.192Z,4.13
2024-02-23T03:29:12.900Z,4.12
2024-02-23T03:31:39.539Z,4.10
2024-02-23T03:34:06.244Z,4.09
2024-02-23T03:36:32.702Z,4.08
2024-02-23T03:38:59.318Z,4.08
2024-02-23T03:41:26.111Z,4.05
2024-02-23T03:43:52.898Z,4.03
2024-02-23T03:46:20.913Z,4.02
2024-02-23T03:48:47.583Z,4.01
2024-02-23T03:51:14.274Z,4.01
2024-02-23T03:53:40.792Z,3.99
2024-02-23T03:56:07.436Z,3.99
2024-02-23T03:58:33.936Z,4.00
2024-02-23T04:01:00.463Z,3.98
2024-02-23T04:03:26.993Z,3.98
2024-02-23T04:05:53.470Z,3.98
2024-02-23T04:08:20.113Z,3.98
2024-02-23T04:10:46.939Z,3.96
2024-02-23T04:13:15.060Z,3.94
2024-02-23T04:15:41.632Z,3.93
2024-02-23T04:18:08.121Z,3.91
2024-02-23T04:20:35.155Z,3.89
2024-02-23T04:23:02.019Z,3.89
2024-02-23T04:25:28.690Z,3.84
2024-02-23T04:27:55.948Z,3.86
2024-02-23T04:30:22.662Z,3.84
2024-02-23T04:32:49.730Z,3.83
2024-02-23T04:35:16.742Z,3.83
2024-02-23T04:37:46.484Z,3.82
2024-02-23T04:40:13.074Z,3.82
2024-02-23T04:42:40.307Z,3.81
2024-02-23T04:45:08.455Z,3.77
2024-02-23T04:47:34.988Z,3.76
2024-02-23T04:50:01.722Z,3.75
2024-02-23T04:52:28.171Z,3.74
2024-02-23T04:54:54.582Z,3.75
2024-02-23T04:57:21.244Z,3.77
2024-02-23T04:59:47.748Z,3.78
2024-02-23T05:02:14.657Z,3.80
2024-02-23T05:04:41.321Z,3.81
2024-02-23T05:07:07.996Z,3.80
2024-02-23T05:09:36.173Z,3.81
2024-02-23T05:12:02.803Z,3.83
2024-02-23T05:14:29.521Z,3.83
2024-02-23T05:16:56.125Z,3.83
2024-02-23T05:19:28.823Z,3.83
2024-02-23T05:21:55.490Z,3.84
2024-02-23T05:24:24.528Z,3.87
2024-02-23T05:26:51.046Z,3.88
2024-02-23T05:29:19.420Z,3.91
2024-02-23T05:31:54.055Z,3.93
2024-02-23T05:34:21.259Z,3.95
2024-02-23T05:36:48.908Z,3.96
2024-02-23T05:39:18.818Z,3.97
2024-02-23T05:41:45.580Z,3.99
2024-02-23T05:44:14.428Z,4.01
2024-02-23T05:46:41.065Z,4.03
2024-02-23T05:49:07.671Z,4.05
2024-02-23T05:51:34.927Z,4.07
2024-02-23T05:54:01.403Z,4.08
2024-02-23T05:56:27.976Z,4.08
2024-02-23T05:58:55.442Z,4.10
2024-02-23T06:01:22.163Z,4.10
2024-02-23T06:03:48.675Z,4.14
2024-02-23T06:06:15.441Z,4.16
2024-02-23T06:08:45.338Z,4.13
2024-02-23T06:11:12.032Z,4.14
2024-02-23T06:13:39.293Z,4.17
2024-02-23T06:16:10.809Z,4.20
2024-02-23T06:18:37.708Z,4.21
2024-02-23T06:21:06.453Z,4.22
2024-02-23T06:23:32.906Z,4.23
2024-02-23T06:25:59.380Z,4.25
2024-02-23T06:28:25.853Z,4.29
2024-02-23T06:30:52.282Z,4.30
2024-02-23T06:33:19.005Z,4.32
2024-02-23T06:35:45.812Z,4.36
2024-02-23T06:38:12.728Z,4.39
2024-02-23T06:40:46.242Z,4.41
2024-02-23T06:43:21.232Z,4.41
2024-02-23T06:45:49.551Z,4.44
2024-02-23T06:48:16.179Z,4.45
2024-02-23T06:50:42.903Z,4.48
2024-02-23T06:53:09.511Z,4.52
2024-02-23T06:55:37.046Z,4.53
2024-02-23T06:58:06.331Z,4.54
2024-02-23T07:00:33.026Z,4.58
2024-02-23T07:03:00.411Z,4.60
2024-02-23T07:05:27.142Z,4.62
2024-02-23T07:07:53.942Z,4.66
2024-02-23T07:10:21.408Z,4.65
2024-02-23T07:12:47.935Z,4.67
2024-02-23T07:15:15.244Z,4.65
2024-02-23T07:17:42.035Z,4.67
2024-02-23T07:20:09.269Z,4.68
2024-02-23T07:22:35.786Z,4.73
2024-02-23T07:25:04.882Z,4.72
2024-02-23T07:27:32.008Z,4.71
2024-02-23T07:29:58.775Z,4.75
2024-02-23T07:32:25.635Z,4.76
2024-02-23T07:34:52.630Z,4.76
2024-02-23T07:37:19.422Z,4.78
2024-02-23T07:39:45.838Z,4.80
2024-02-23T07:42:14.357Z,4.81
2024-02-23T07:44:41.321Z,4.82
2024-02-23T07:47:07.994Z,4.84
2024-02-23T07:49:34.664Z,4.86
2024-02-23T07:52:01.215Z,4.88
2024-02-23T07:54:27.743Z,4.93
2024-02-23T07:56:54.390Z,4.96
2024-02-23T07:59:20.949Z,4.98
2024-02-23T08:01:48.381Z,5.01
2024-02-23T08:04:14.961Z,5.03
2024-02-23T08:06:43.264Z,5.07
2024-02-23T08:09:10.473Z,5.09
2024-02-23T08:11:37.472Z,5.08
2024-02-23T08:14:04.363Z,5.07
2024-02-23T08:16:30.964Z,5.07
2024-02-23T08:18:57.590Z,5.08
2024-02-23T08:21:24.008Z,5.11
2024-02-23T08:23:50.542Z,5.13
2024-02-23T08:26:17.338Z,5.14
2024-02-23T08:28:44.346Z,5.14
2024-02-23T08:31:11.001Z,5.15
2024-02-23T08:33:37.635Z,5.16
2024-02-23T08:36:06.964Z,5.16
2024-02-23T08:38:34.186Z,5.21
2024-02-23T08:41:00.920Z,5.23
2024-02-23T08:43:30.481Z,5.19
2024-02-23T08:46:00.045Z,5.20
2024-02-23T08:48:29.259Z,5.19
2024-02-23T08:50:56.427Z,5.19
2024-02-23T08:53:22.995Z,5.19
2024-02-23T08:55:49.771Z,5.20
2024-02-23T08:58:17.318Z,5.20
2024-02-23T09:00:43.857Z,5.19
2024-02-23T09:03:10.434Z,5.13
2024-02-23T09:05:37.183Z,5.15
2024-02-23T09:08:03.963Z,5.14
2024-02-23T09:10:30.538Z,5.15
2024-02-23T09:12:56.981Z,5.19
2024-02-23T09:15:23.557Z,5.22
2024-02-23T09:17:50.299Z,5.22
2024-02-23T09:20:17.155Z,5.21
2024-02-23T09:22:43.896Z,5.19
2024-02-23T09:25:10.436Z,5.22
2024-02-23T09:27:41.598Z,5.21
2024-02-23T09:30:08.664Z,5.23
2024-02-23T09:32:35.189Z,5.26
2024-02-23T09:35:01.751Z,5.30
2024-02-23T09:37:28.260Z,5.31
2024-02-23T09:39:54.641Z,5.32
2024-02-23T09:42:28.575Z,5.32
2024-02-23T09:45:01.417Z,5.35
2024-02-23T09:47:29.580Z,5.36
2024-02-23T09:49:57.048Z,5.37
2024-02-23T09:52:24.191Z,5.40
2024-02-23T09:54:50.748Z,5.39
2024-02-23T09:57:19.013Z,5.38
2024-02-23T09:59:45.872Z,5.38
2024-02-23T10:02:16.723Z,5.41
2024-02-23T10:04:44.978Z,5.42
2024-02-23T10:07:11.827Z,5.45
2024-02-23T10:09:38.383Z,5.53
2024-02-23T10:12:05.604Z,5.61
2024-02-23T10:14:32.316Z,5.64
2024-02-23T10:17:00.021Z,5.68
2024-02-23T10:19:30.185Z,5.67
2024-02-23T10:21:57.739Z,5.70
2024-02-23T10:24:25.680Z,5.73
2024-02-23T10:26:52.818Z,5.72
2024-02-23T10:29:21.163Z,5.73
2024-02-23T10:31:51.994Z,5.77
2024-02-23T10:34:20.686Z,5.77
2024-02-23T10:36:48.999Z,5.75
2024-02-23T10:39:20.557Z,5.76
2024-02-23T10:42:01.471Z,5.76
2024-02-23T10:44:29.748Z,5.75
2024-02-23T10:46:57.857Z,5.73
2024-02-23T10:49:27.848Z,5.70
2024-02-23T10:51:55.289Z,5.72
2024-02-23T10:54:22.885Z,5.72
2024-02-23T10:56:52.351Z,5.74
2024-02-23T10:59:20.095Z,5.77
2024-02-23T11:01:51.028Z,5.79
2024-02-23T11:04:18.595Z,5.85
2024-02-23T11:06:51.573Z,5.92
2024-02-23T11:09:22.418Z,6.02
2024-02-23T11:11:55.453Z,6.10
2024-02-23T11:14:37.431Z,6.16
2024-02-23T11:17:05.145Z,6.21
2024-02-23T11:19:37.127Z,6.32
2024-02-23T11:22:05.078Z,6.45
2024-02-23T11:24:32.857Z,6.49
2024-02-23T11:27:01.557Z,6.54
2024-02-23T11:29:30.231Z,6.63
2024-02-23T11:32:01.405Z,6.63
2024-02-23T11:34:28.899Z,6.63
2024-02-23T11:36:55.492Z,6.63
2024-02-23T11:39:23.287Z,6.75
2024-02-23T11:41:50.921Z,6.79
2024-02-23T11:44:18.594Z,6.86
2024-02-23T11:46:46.326Z,6.98
2024-02-23T11:49:13.057Z,7.00
2024-02-23T11:51:39.754Z,7.01
2024-02-23T11:54:07.203Z,6.97
2024-02-23T11:56:33.746Z,6.96
2024-02-23T11:59:00.494Z,6.96
2024-02-23T12:01:30.424Z,6.98
2024-02-23T12:03:56.882Z,7.00
2024-02-23T12:06:23.530Z,7.01
2024-02-23T12:08:50.642Z,6.99
2024-02-23T12:11:17.516Z,6.96
2024-02-23T12:13:44.038Z,6.94
2024-02-23T12:16:10.899Z,6.94
2024-02-23T12:18:37.847Z,6.96
2024-02-23T12:21:08.605Z,6.95
2024-02-23T12:23:42.669Z,6.97
2024-02-23T12:26:09.659Z,7.03
2024-02-23T12:28:36.665Z,7.05
2024-02-23T12:31:04.720Z,7.13
2024-02-23T12:33:37.086Z,7.32
2024-02-23T12:36:05.404Z,7.37
2024-02-23T12:38:32.404Z,7.38
2024-02-23T12:41:00.745Z,7.38
2024-02-23T12:43:27.961Z,7.38
2024-02-23T12:45:58.284Z,7.36
2024-02-23T12:48:25.019Z,7.40
2024-02-23T12:50:52.841Z,7.47
2024-02-23T12:53:42.127Z,7.46
2024-02-23T12:56:11.046Z,7.48
2024-02-23T12:58:38.527Z,7.53
2024-02-23T13:01:06.885Z,7.56
2024-02-23T13:03:34.586Z,7.53
2024-02-23T13:06:01.306Z,7.63
2024-02-23T13:08:28.424Z,7.74
2024-02-23T13:10:55.774Z,7.77
2024-02-23T13:13:23.232Z,7.75
2024-02-23T13:15:52.603Z,7.70
2024-02-23T13:18:20.536Z,7.72
2024-02-23T13:20:47.796Z,7.77
2024-02-23T13:23:16.655Z,7.78
2024-02-23T13:25:44.446Z,7.70
2024-02-23T13:28:13.578Z,7.68
2024-02-23T13:30:40.499Z,7.65
2024-02-23T13:33:09.120Z,7.63
2024-02-23T13:35:35.993Z,7.67
2024-02-23T13:38:04.486Z,7.80
2024-02-23T13:40:32.677Z,7.88
2024-02-23T13:42:59.480Z,7.97
2024-02-23T13:45:26.391Z,7.90
2024-02-23T13:48:04.155Z,7.86
2024-02-23T13:50:31.384Z,7.86
2024-02-23T13:52:58.721Z,7.87
2024-02-23T13:55:25.300Z,7.86
2024-02-23T13:57:51.848Z,7.90
2024-02-23T14:00:20.548Z,7.96
2024-02-23T14:02:49.086Z,7.98
2024-02-23T14:05:16.985Z,7.98
2024-02-23T14:07:43.963Z,8.01
2024-02-23T14:10:10.926Z,8.03
2024-02-23T14:12:37.637Z,8.00
2024-02-23T14:15:06.001Z,7.99
2024-02-23T14:17:32.646Z,8.02
2024-02-23T14:19:59.237Z,8.02
2024-02-23T14:22:25.887Z,7.99
2024-02-23T14:24:52.546Z,8.03
2024-02-23T14:27:19.370Z,8.06
2024-02-23T14:29:47.649Z,8.06
2024-02-23T14:32:17.981Z,8.04
2024-02-23T14:34:45.137Z,8.00
2024-02-23T14:37:11.634Z,7.94
2024-02-23T14:39:38.054Z,7.96
2024-02-23T14:42:04.952Z,7.96
2024-02-23T14:44:31.565Z,7.92
2024-02-23T14:46:58.205Z,7.91
2024-02-23T14:49:25.183Z,7.92
2024-02-23T14:51:51.886Z,7.94
2024-02-23T14:54:25.647Z,7.93
2024-02-23T14:56:52.239Z,7.93
2024-02-23T14:59:18.892Z,7.94
2024-02-23T15:01:45.438Z,7.92
2024-02-23T15:04:12.684Z,7.89
2024-02-23T15:06:39.937Z,7.86
2024-02-23T15:09:06.747Z,7.84
2024-02-23T15:11:33.695Z,7.85
2024-02-23T15:14:02.041Z,7.86
2024-02-23T15:16:29.212Z,7.85
2024-02-23T15:18:55.699Z,7.83
2024-02-23T15:21:22.209Z,7.79
2024-02-23T15:23:48.828Z,7.76
2024-02-23T15:26:15.624Z,7.73
2024-02-23T15:28:42.167Z,7.70
2024-02-23T15:31:09.641Z,7.69
2024-02-23T15:33:39.815Z,7.67
2024-02-23T15:36:09.288Z,7.68
2024-02-23T15:38:37.298Z,7.65
2024-02-23T15:41:05.152Z,7.62
2024-02-23T15:43:31.969Z,7.61
2024-02-23T15:45:58.404Z,7.60
2024-02-23T15:48:26.603Z,7.59
2024-02-23T15:51:09.954Z,7.57
2024-02-23T15:56:06.405Z,7.51
2024-02-23T15:58:32.859Z,7.50
2024-02-23T16:00:59.531Z,7.49
2024-02-23T16:03:26.166Z,7.46
2024-02-23T16:05:52.935Z,7.41
2024-02-23T16:08:38.667Z,7.37
2024-02-23T16:11:05.238Z,7.35
2024-02-23T16:13:31.999Z,7.31
2024-02-23T16:15:58.889Z,7.27
2024-02-23T16:18:25.393Z,7.25
2024-02-23T16:20:52.102Z,7.18
2024-02-23T16:23:18.551Z,7.16
2024-02-23T16:25:45.215Z,7.11
2024-02-23T16:28:11.747Z,7.04
2024-02-23T16:30:39.582Z,7.01
2024-02-23T16:33:05.993Z,6.96
2024-02-23T16:35:39.195Z,6.92
2024-02-23T16:38:05.869Z,6.90
2024-02-23T16:40:32.699Z,6.89
2024-02-23T16:43:00.428Z,6.86
2024-02-23T16:45:28.587Z,6.84
2024-02-23T16:47:55.981Z,6.81
2024-02-23T16:50:22.783Z,6.80
2024-02-23T16:52:49.963Z,6.77
2024-02-23T16:55:19.656Z,6.71
2024-02-23T16:57:46.300Z,6.69
2024-02-23T17:00:13.351Z,6.67
2024-02-23T17:02:40.065Z,6.63
2024-02-23T17:05:06.889Z,6.61
2024-02-23T17:07:33.658Z,6.60
2024-02-23T17:10:00.252Z,6.57
2024-02-23T17:12:28.684Z,6.55
2024-02-23T17:14:55.240Z,6.53
2024-02-23T17:17:22.062Z,6.48
2024-02-23T17:19:49.014Z,6.45
2024-02-23T17:22:15.650Z,6.40
2024-02-23T17:24:42.236Z,6.37
2024-02-23T17:27:10.163Z,6.36
2024-02-23T17:29:36.863Z,6.34
2024-02-23T17:32:03.443Z,6.30
2024-02-23T17:34:30.226Z,6.26
2024-02-23T17:36:56.797Z,6.25
2024-02-23T17:39:24.537Z,6.25
2024-02-23T17:41:51.095Z,6.23
2024-02-23T17:44:18.912Z,6.20
2024-02-23T17:46:49.334Z,6.18
2024-02-23T17:49:16.873Z,6.13
2024-02-23T17:51:43.452Z,6.11
2024-02-23T17:54:10.152Z,6.09
2024-02-23T17:56:36.845Z,6.07
2024-02-23T17:59:04.662Z,6.08
2024-02-23T18:01:32.342Z,6.08
2024-02-23T18:04:07.706Z,6.02
2024-02-23T18:06:35.403Z,5.60
2024-02-23T18:09:02.279Z,5.36
2024-02-23T18:11:29.198Z,5.15
2024-02-23T18:13:56.735Z,5.01
2024-02-23T18:16:23.461Z,5.00
2024-02-23T18:18:52.051Z,5.03
2024-02-23T18:21:18.627Z,5.04
2024-02-23T18:23:45.509Z,5.00
2024-02-23T18:26:15.730Z,5.00
2024-02-23T18:28:42.621Z,4.96
2024-02-23T18:31:09.633Z,4.99
2024-02-23T18:33:36.519Z,4.99
2024-02-23T18:36:03.587Z,5.00
2024-02-23T18:38:30.036Z,4.99
2024-02-23T18:40:59.069Z,4.90
2024-02-23T18:43:26.162Z,4.90
2024-02-23T18:45:52.752Z,4.89
2024-02-23T18:48:21.172Z,4.85
2024-02-23T18:50:47.966Z,4.78
2024-02-23T18:53:20.693Z,4.77
2024-02-23T18:55:47.340Z,4.84
2024-02-23T18:58:14.124Z,4.87
2024-02-23T19:00:43.068Z,4.87
2024-02-23T19:03:09.708Z,4.78
2024-02-23T19:05:38.425Z,4.72
2024-02-23T19:08:07.910Z,4.66
2024-02-23T19:10:37.187Z,4.69
2024-02-23T19:13:03.854Z,4.70
2024-02-23T19:15:31.314Z,4.68
2024-02-23T19:17:57.942Z,4.69
2024-02-23T19:20:24.800Z,4.72
2024-02-23T19:22:58.092Z,4.71
2024-02-23T19:25:24.529Z,4.72
2024-02-23T19:27:50.996Z,4.67
2024-02-23T19:30:17.798Z,4.72
2024-02-23T19:32:44.573Z,4.77
2024-02-23T19:35:11.397Z,4.82
2024-02-23T19:37:38.687Z,4.78
2024-02-23T19:40:06.129Z,4.74
2024-02-23T19:42:34.324Z,4.76
2024-02-23T19:45:03.703Z,4.80
2024-02-23T19:47:33.412Z,4.80
2024-02-23T19:50:00.606Z,4.76
2024-02-23T19:52:30.307Z,4.74
2024-02-23T19:54:59.929Z,4.73
2024-02-23T19:57:27.992Z,4.76
2024-02-23T19:59:54.787Z,4.76
2024-02-23T20:02:21.459Z,4.82
2024-02-23T20:04:53.571Z,4.84
2024-02-23T20:07:22.511Z,4.80
2024-02-23T20:09:49.857Z,4.81
2024-02-23T20:12:20.289Z,4.77
2024-02-23T20:14:47.791Z,4.76
2024-02-23T20:17:15.960Z,4.75
2024-02-23T20:19:44.282Z,4.76
2024-02-23T20:22:14.889Z,4.74
2024-02-23T20:24:43.153Z,4.66
2024-02-23T20:27:12.156Z,4.66
2024-02-23T20:29:41.158Z,4.65
2024-02-23T20:32:16.143Z,4.66
2024-02-23T20:34:56.641Z,4.70
2024-02-23T20:37:25.529Z,4.75
2024-02-23T20:39:52.003Z,4.75
2024-02-23T20:42:18.463Z,4.75
2024-02-23T20:44:48.795Z,4.78
2024-02-23T20:47:19.801Z,4.84
2024-02-23T20:49:49.766Z,4.89
2024-02-23T20:52:18.315Z,4.91
2024-02-23T20:54:49.443Z,4.92
2024-02-23T20:57:26.055Z,4.93
2024-02-23T20:59:52.649Z,4.95
2024-02-23T21:02:25.168Z,4.96
2024-02-23T21:04:51.957Z,4.95
2024-02-23T21:07:19.650Z,4.95
2024-02-23T21:09:47.358Z,4.97
2024-02-23T21:12:14.969Z,4.96
2024-02-23T21:14:43.810Z,4.98
2024-02-23T21:17:10.474Z,4.97
2024-02-23T21:19:37.173Z,4.98
2024-02-23T21:22:04.061Z,4.96
2024-02-23T21:24:31.278Z,4.99
2024-02-23T21:26:58.417Z,5.04
2024-02-23T21:29:25.112Z,5.10
2024-02-23T21:31:51.733Z,5.13
2024-02-23T21:34:18.345Z,5.13
2024-02-23T21:36:44.907Z,5.12
2024-02-23T21:39:11.425Z,5.08
2024-02-23T21:41:38.010Z,5.03
2024-02-23T21:44:06.803Z,4.99
2024-02-23T21:46:33.474Z,4.98
2024-02-23T21:49:03.298Z,4.98
2024-02-23T21:51:30.417Z,4.98
2024-02-23T21:53:57.339Z,4.96
2024-02-23T21:56:24.666Z,4.93
2024-02-23T21:58:51.392Z,4.91
2024-02-23T22:01:21.669Z,4.89
2024-02-23T22:03:53.351Z,4.88
2024-02-23T22:06:22.394Z,4.82
2024-02-23T22:08:49.320Z,4.79
2024-02-23T22:11:16.438Z,4.77
2024-02-23T22:13:43.212Z,4.75
2024-02-23T22:16:09.912Z,4.73
2024-02-23T22:18:36.559Z,4.71
2024-02-23T22:21:06.026Z,4.69
2024-02-23T22:23:32.541Z,4.69
2024-02-23T22:26:00.138Z,4.69
2024-02-23T22:28:26.720Z,4.68
2024-02-23T22:30:53.164Z,4.66
2024-02-23T22:33:20.098Z,4.59
2024-02-23T22:35:46.791Z,4.52
2024-02-23T22:38:13.466Z,4.53
2024-02-23T22:40:40.034Z,4.51
2024-02-23T22:43:06.544Z,4.46
2024-02-23T22:45:33.231Z,4.43
2024-02-23T22:48:00.447Z,4.44
2024-02-23T22:50:27.407Z,4.41
2024-02-23T22:52:54.114Z,4.35
2024-02-23T22:55:20.873Z,4.28
2024-02-23T22:57:47.547Z,4.21
2024-02-23T23:00:14.669Z,4.17
2024-02-23T23:02:41.608Z,4.12
2024-02-23T23:05:08.539Z,4.10
2024-02-23T23:07:37.250Z,4.06
2024-02-23T23:10:04.714Z,4.04
2024-02-23T23:12:32.554Z,4.09
2024-02-23T23:14:59.217Z,4.09
2024-02-23T23:17:25.881Z,4.05
2024-02-23T23:19:52.688Z,4.04
2024-02-23T23:22:19.278Z,3.97
2024-02-23T23:24:45.869Z,3.94
2024-02-23T23:27:12.401Z,3.94
2024-02-23T23:29:39.142Z,3.90
2024-02-23T23:32:06.016Z,3.89
2024-02-23T23:34:32.604Z,3.90
2024-02-23T23:36:59.137Z,3.89
2024-02-23T23:39:25.676Z,3.86
2024-02-23T23:41:52.817Z,3.87
2024-02-23T23:44:19.420Z,3.81
2024-02-23T23:46:45.950Z,3.79
2024-02-23T23:49:12.718Z,3.78
2024-02-23T23:51:49.723Z,3.76
2024-02-23T23:54:23.490Z,3.76
2024-02-23T23:56:50.263Z,3.76
2024-02-23T23:59:17.001Z,3.74
